Time;durP1;ratioP1;P1;durP2;ratioP2;P2;SDS_P1;SDS_P2;PMS_P1;PMS_P2;Temp;Humidity;BMP_temperature;BMP_pressure;BME280_temperature;BME280_humidity;BME280_pressure;Samples;Min_cycle;Max_cycle;Signal;HPM_P1;HPM_P2
2024/04/20 00:01:53;;;;;;;2.63;2.00;;;;;;;;;;5382827;26;20331;-52
2024/04/20 00:04:18;;;;;;;2.13;1.95;;;;;;;;;;5382927;26;20003;-52
2024/04/20 00:06:47;;;;;;;1.88;1.77;;;;;;;;;;5382871;26;20019;-52
2024/04/20 00:09:14;;;;;;;2.15;2.05;;;;;;;;;;5382837;26;20032;-52
2024/04/20 00:11:40;;;;;;;2.00;1.83;;;;;;;;;;5352063;26;20008;-52
2024/04/20 00:14:05;;;;;;;2.00;1.83;;;;;;;;;;5382750;26;20010;-52
2024/04/20 00:16:30;;;;;;;2.20;2.10;;;;;;;;;;5382730;26;20004;-52
2024/04/20 00:18:56;;;;;;;1.95;1.85;;;;;;;;;;5382723;26;20479;-52
2024/04/20 00:21:22;;;;;;;1.83;1.73;;;;;;;;;;5382541;26;19996;-52
2024/04/20 00:23:50;;;;;;;1.95;1.85;;;;;;;;;;5385692;26;20004;-52
2024/04/20 00:26:17;;;;;;;1.95;1.85;;;;;;;;;;5386031;26;19996;-52
2024/04/20 00:28:42;;;;;;;1.70;1.60;;;;;;;;;;5385875;26;19996;-52
2024/04/20 00:31:16;;;;;;;2.22;2.03;;;;;;;;;;5385959;26;20011;-52
2024/04/20 00:33:41;;;;;;;2.50;2.30;;;;;;;;;;5385954;26;20342;-52
2024/04/20 00:36:08;;;;;;;2.10;2.00;;;;;;;;;;5385552;26;20007;-52
2024/04/20 00:38:40;;;;;;;2.08;1.88;;;;;;;;;;5385883;26;20000;-52
2024/04/20 00:41:06;;;;;;;3.33;2.25;;;;;;;;;;5385753;26;20315;-59
2024/04/20 00:43:31;;;;;;;2.25;2.08;;;;;;;;;;5395485;21;20022;-59
2024/04/20 00:45:57;;;;;;;3.70;2.50;;;;;;;;;;5413798;21;20674;-52
2024/04/20 00:48:22;;;;;;;2.75;2.55;;;;;;;;;;5401419;21;20000;-52
2024/04/20 00:51:26;;;;;;;3.10;2.58;;;;;;;;;;5418319;21;20017;-52
2024/04/20 00:53:52;;;;;;;2.75;1.95;;;;;;;;;;5393919;21;20036;-60
2024/04/20 00:56:18;;;;;;;2.50;2.30;;;;;;;;;;5426236;21;20016;-52
2024/04/20 00:58:44;;;;;;;2.25;2.15;;;;;;;;;;5389158;26;20071;-52
2024/04/20 01:01:10;;;;;;;2.60;2.40;;;;;;;;;;5421015;26;19995;-52
2024/04/20 01:03:35;;;;;;;2.17;2.08;;;;;;;;;;5420684;26;20003;-52
2024/04/20 01:06:01;;;;;;;2.20;2.00;;;;;;;;;;5420978;26;20069;-52
2024/04/20 01:08:27;;;;;;;2.13;1.92;;;;;;;;;;5420569;26;20369;-52
2024/04/20 01:10:52;;;;;;;1.88;1.77;;;;;;;;;;5419854;26;19991;-60
2024/04/20 01:13:23;;;;;;;2.40;2.20;;;;;;;;;;5386426;26;20003;-59
2024/04/20 01:15:49;;;;;;;2.13;1.98;;;;;;;;;;5389534;26;20027;-59
2024/04/20 01:18:14;;;;;;;2.15;2.00;;;;;;;;;;5420840;26;20002;-59
2024/04/20 01:20:39;;;;;;;1.75;1.65;;;;;;;;;;5420565;26;19991;-59
2024/04/20 01:23:05;;;;;;;1.70;1.60;;;;;;;;;;5420643;26;20019;-59
2024/04/20 01:25:31;;;;;;;1.95;1.85;;;;;;;;;;5420715;26;19996;-59
2024/04/20 01:27:57;;;;;;;1.98;1.88;;;;;;;;;;5417973;26;20452;-59
2024/04/20 01:30:22;;;;;;;2.00;1.45;;;;;;;;;;5416908;26;20023;-59
2024/04/20 01:32:47;;;;;;;3.05;1.42;;;;;;;;;;5416459;26;19996;-59
2024/04/20 01:35:13;;;;;;;1.58;1.48;;;;;;;;;;5416616;26;20396;-59
2024/04/20 01:37:38;;;;;;;1.92;1.83;;;;;;;;;;5417335;26;19995;-59
2024/04/20 01:40:04;;;;;;;2.08;1.58;;;;;;;;;;5417180;26;19996;-59
2024/04/20 01:42:29;;;;;;;1.70;1.50;;;;;;;;;;5418661;26;19996;-59
2024/04/20 01:44:55;;;;;;;1.50;1.40;;;;;;;;;;5420752;26;19995;-60
2024/04/20 01:47:25;;;;;;;1.38;1.27;;;;;;;;;;5420684;26;20003;-60
2024/04/20 01:49:51;;;;;;;1.70;1.60;;;;;;;;;;5420645;26;20069;-60
2024/04/20 01:52:16;;;;;;;2.97;1.50;;;;;;;;;;5420537;26;20408;-60
2024/04/20 01:54:41;;;;;;;1.23;1.20;;;;;;;;;;5389204;26;20155;-58
2024/04/20 01:57:07;;;;;;;1.40;1.25;;;;;;;;;;5419909;26;20503;-59
2024/04/20 01:59:32;;;;;;;1.67;1.50;;;;;;;;;;5420039;26;20345;-59
2024/04/20 02:01:58;;;;;;;1.63;1.52;;;;;;;;;;5420379;26;20007;-59
2024/04/20 02:04:23;;;;;;;1.50;1.40;;;;;;;;;;5420448;26;20010;-59
2024/04/20 02:06:49;;;;;;;1.27;1.20;;;;;;;;;;5388760;26;20038;-60
2024/04/20 02:09:14;;;;;;;1.90;1.30;;;;;;;;;;5419885;26;20048;-59
2024/04/20 02:11:40;;;;;;;1.50;1.40;;;;;;;;;;5419937;26;20007;-59
2024/04/20 02:14:07;;;;;;;1.08;1.08;;;;;;;;;;5420050;26;20000;-59
2024/04/20 02:16:32;;;;;;;1.17;1.08;;;;;;;;;;5419982;26;19999;-59
2024/04/20 02:18:58;;;;;;;1.10;1.00;;;;;;;;;;5419758;26;20307;-59
2024/04/20 02:21:23;;;;;;;1.00;1.00;;;;;;;;;;5419911;26;20007;-59
2024/04/20 02:23:49;;;;;;;1.08;0.98;;;;;;;;;;5419590;26;20071;-59
2024/04/20 02:26:14;;;;;;;0.90;0.90;;;;;;;;;;5419848;26;20322;-59
2024/04/20 02:28:39;;;;;;;0.90;0.90;;;;;;;;;;5419772;26;20329;-59
2024/04/20 02:31:05;;;;;;;1.20;1.20;;;;;;;;;;5419796;26;19991;-59
2024/04/20 02:33:32;;;;;;;1.13;1.02;;;;;;;;;;5419642;26;20409;-59
2024/04/20 02:35:57;;;;;;;1.15;1.05;;;;;;;;;;5419718;26;20006;-59
2024/04/20 02:38:22;;;;;;;1.40;1.30;;;;;;;;;;5419525;26;19996;-59
2024/04/20 02:40:48;;;;;;;1.25;1.15;;;;;;;;;;5419675;26;20011;-59
2024/04/20 02:43:13;;;;;;;1.38;1.27;;;;;;;;;;5419610;26;19995;-59
2024/04/20 02:45:39;;;;;;;1.20;1.10;;;;;;;;;;5418505;26;19991;-59
2024/04/20 02:48:04;;;;;;;1.30;1.20;;;;;;;;;;5388127;26;20010;-59
2024/04/20 02:50:30;;;;;;;1.38;1.15;;;;;;;;;;5419521;26;20006;-60
2024/04/20 02:52:55;;;;;;;1.23;1.13;;;;;;;;;;5419361;26;20428;-59
2024/04/20 02:55:20;;;;;;;1.60;1.50;;;;;;;;;;5419234;26;20002;-59
2024/04/20 02:57:46;;;;;;;1.55;1.45;;;;;;;;;;5388354;26;19996;-59
2024/04/20 03:00:11;;;;;;;1.45;1.40;;;;;;;;;;5419762;26;20019;-59
2024/04/20 03:02:37;;;;;;;1.40;1.30;;;;;;;;;;5419690;26;20000;-60
2024/04/20 03:05:03;;;;;;;1.45;1.35;;;;;;;;;;5419646;26;20000;-59
2024/04/20 03:07:28;;;;;;;1.77;1.67;;;;;;;;;;5419581;26;20011;-59
2024/04/20 03:09:53;;;;;;;1.60;1.45;;;;;;;;;;5419143;26;20299;-59
2024/04/20 03:12:20;;;;;;;1.60;1.50;;;;;;;;;;5419477;26;20073;-59
2024/04/20 03:14:45;;;;;;;1.77;1.67;;;;;;;;;;5358883;26;20434;-59
2024/04/20 03:17:11;;;;;;;1.88;1.52;;;;;;;;;;5419458;26;20053;-59
2024/04/20 03:19:36;;;;;;;1.80;1.70;;;;;;;;;;5419411;26;20022;-59
2024/04/20 03:22:02;;;;;;;2.13;2.03;;;;;;;;;;5419398;26;19999;-59
2024/04/20 03:24:27;;;;;;;2.00;1.90;;;;;;;;;;5419326;26;20073;-59
2024/04/20 03:26:52;;;;;;;1.50;1.40;;;;;;;;;;5419174;26;20415;-59
2024/04/20 03:29:18;;;;;;;1.63;1.52;;;;;;;;;;5419447;26;20002;-59
2024/04/20 03:31:43;;;;;;;1.60;1.50;;;;;;;;;;5419166;26;20347;-59
2024/04/20 03:34:08;;;;;;;1.73;1.50;;;;;;;;;;5387421;26;20008;-59
2024/04/20 03:36:34;;;;;;;1.20;1.20;;;;;;;;;;5418883;26;20311;-59
2024/04/20 03:39:13;;;;;;;1.50;1.40;;;;;;;;;;5418807;26;20018;-61
2024/04/20 03:41:38;;;;;;;1.52;1.42;;;;;;;;;;5418012;26;20369;-60
2024/04/20 03:44:04;;;;;;;1.20;1.13;;;;;;;;;;5418801;26;20039;-59
2024/04/20 03:46:29;;;;;;;1.35;1.17;;;;;;;;;;5418694;26;20002;-59
2024/04/20 03:48:55;;;;;;;1.60;1.30;;;;;;;;;;5418664;26;20037;-60
2024/04/20 03:51:20;;;;;;;1.17;1.10;;;;;;;;;;5418566;26;20010;-59
2024/04/20 03:53:46;;;;;;;1.10;1.10;;;;;;;;;;5419119;26;19999;-60
2024/04/20 03:56:12;;;;;;;1.10;1.00;;;;;;;;;;5418416;26;20326;-60
2024/04/20 03:58:43;;;;;;;1.27;1.15;;;;;;;;;;5387269;26;20006;-60
2024/04/20 04:01:09;;;;;;;0.95;0.95;;;;;;;;;;5387529;26;19999;-60
2024/04/20 04:03:34;;;;;;;0.95;0.95;;;;;;;;;;5419002;26;19999;-60
2024/04/20 04:06:00;;;;;;;0.85;0.85;;;;;;;;;;5418705;26;19998;-60
2024/04/20 04:08:25;;;;;;;0.80;0.80;;;;;;;;;;5358198;26;20000;-60
2024/04/20 04:10:51;;;;;;;0.95;0.70;;;;;;;;;;5418628;26;19995;-59
2024/04/20 04:13:17;;;;;;;0.63;0.63;;;;;;;;;;5418318;26;20396;-59
2024/04/20 04:15:42;;;;;;;0.80;0.80;;;;;;;;;;5418543;26;19999;-59
2024/04/20 04:18:09;;;;;;;0.70;0.70;;;;;;;;;;5387302;26;20011;-60
2024/04/20 04:20:34;;;;;;;0.70;0.70;;;;;;;;;;5418357;26;20449;-60
2024/04/20 04:23:03;;;;;;;0.80;0.77;;;;;;;;;;5418354;26;20007;-59
2024/04/20 04:25:30;;;;;;;0.80;0.80;;;;;;;;;;5418648;26;20007;-59
2024/04/20 04:27:56;;;;;;;0.60;0.60;;;;;;;;;;5418037;26;19996;-60
2024/04/20 04:30:21;;;;;;;0.80;0.80;;;;;;;;;;5418305;26;20000;-60
2024/04/20 04:32:46;;;;;;;0.70;0.70;;;;;;;;;;5417369;26;19995;-59
2024/04/20 04:35:12;;;;;;;0.93;0.50;;;;;;;;;;5418156;26;20072;-60
2024/04/20 04:37:37;;;;;;;0.90;0.90;;;;;;;;;;5417366;26;20330;-59
2024/04/20 04:40:03;;;;;;;0.50;0.50;;;;;;;;;;5386790;26;20000;-59
2024/04/20 04:42:29;;;;;;;0.52;0.52;;;;;;;;;;5418016;26;20007;-59
2024/04/20 04:44:55;;;;;;;0.77;0.60;;;;;;;;;;5418015;26;20026;-59
2024/04/20 04:47:21;;;;;;;0.60;0.60;;;;;;;;;;5417908;26;19995;-59
2024/04/20 04:49:46;;;;;;;0.50;0.50;;;;;;;;;;5417964;26;19999;-59
2024/04/20 04:52:11;;;;;;;0.50;0.50;;;;;;;;;;5386653;26;20000;-59
2024/04/20 04:54:37;;;;;;;0.55;0.52;;;;;;;;;;5417800;26;19992;-59
2024/04/20 04:57:02;;;;;;;0.50;0.50;;;;;;;;;;5417489;26;19999;-59
2024/04/20 04:59:28;;;;;;;0.65;0.65;;;;;;;;;;5417711;26;20036;-59
2024/04/20 05:01:54;;;;;;;0.40;0.40;;;;;;;;;;5417922;26;20007;-59
2024/04/20 05:04:20;;;;;;;0.50;0.50;;;;;;;;;;5417648;26;20010;-60
2024/04/20 05:06:46;;;;;;;0.40;0.40;;;;;;;;;;5417635;26;19999;-60
2024/04/20 05:09:14;;;;;;;0.63;0.40;;;;;;;;;;5388582;26;19995;-59
2024/04/20 05:11:40;;;;;;;0.50;0.40;;;;;;;;;;5421206;26;20011;-60
2024/04/20 05:14:05;;;;;;;0.60;0.43;;;;;;;;;;5389773;26;20000;-59
2024/04/20 05:16:30;;;;;;;0.45;0.40;;;;;;;;;;5421079;26;20072;-59
2024/04/20 05:18:56;;;;;;;0.50;0.50;;;;;;;;;;5421358;26;20065;-59
2024/04/20 05:21:21;;;;;;;0.47;0.47;;;;;;;;;;5421138;26;19999;-58
2024/04/20 05:23:47;;;;;;;0.40;0.40;;;;;;;;;;5389821;26;20010;-59
2024/04/20 05:26:12;;;;;;;0.73;0.40;;;;;;;;;;5421049;26;19992;-59
2024/04/20 05:28:37;;;;;;;0.55;0.55;;;;;;;;;;5420964;26;20307;-59
2024/04/20 05:31:03;;;;;;;0.40;0.40;;;;;;;;;;5389908;26;20000;-59
2024/04/20 05:33:29;;;;;;;0.50;0.50;;;;;;;;;;5420498;26;20071;-59
2024/04/20 05:35:55;;;;;;;1.00;0.40;;;;;;;;;;5420606;26;20011;-59
2024/04/20 05:38:20;;;;;;;0.30;0.30;;;;;;;;;;5420521;26;19996;-59
2024/04/20 05:40:45;;;;;;;0.40;0.40;;;;;;;;;;5420204;26;20434;-67
2024/04/20 05:43:11;;;;;;;0.40;0.40;;;;;;;;;;5420454;26;19992;-62
2024/04/20 05:45:36;;;;;;;1.30;0.50;;;;;;;;;;5420453;26;20001;-62
2024/04/20 05:48:03;;;;;;;0.50;0.30;;;;;;;;;;5420489;26;20063;-62
2024/04/20 05:50:29;;;;;;;0.40;0.40;;;;;;;;;;5420400;26;19995;-62
2024/04/20 05:52:54;;;;;;;0.40;0.40;;;;;;;;;;5420320;26;19991;-61
2024/04/20 05:55:19;;;;;;;0.52;0.50;;;;;;;;;;5419959;26;19999;-61
2024/04/20 05:57:45;;;;;;;0.60;0.60;;;;;;;;;;5420280;26;20022;-61
2024/04/20 06:00:10;;;;;;;0.55;0.50;;;;;;;;;;5419829;26;20000;-55
2024/04/20 06:02:39;;;;;;;0.73;0.73;;;;;;;;;;5420159;26;20006;-53
2024/04/20 06:05:05;;;;;;;1.58;1.10;;;;;;;;;;5419707;26;20322;-54
2024/04/20 06:07:31;;;;;;;3.22;1.30;;;;;;;;;;5419734;26;20000;-53
2024/04/20 06:09:57;;;;;;;1.83;1.50;;;;;;;;;;5420060;26;19995;-53
2024/04/20 06:12:22;;;;;;;2.00;1.90;;;;;;;;;;5419946;26;20334;-53
2024/04/20 06:14:48;;;;;;;1.40;1.30;;;;;;;;;;5388496;26;20000;-53
2024/04/20 06:17:14;;;;;;;1.52;1.10;;;;;;;;;;5388454;26;19996;-53
2024/04/20 06:19:39;;;;;;;0.93;0.93;;;;;;;;;;5418558;26;20000;-53
2024/04/20 06:22:04;;;;;;;0.77;0.77;;;;;;;;;;5420003;26;20341;-53
2024/04/20 06:24:30;;;;;;;1.35;1.25;;;;;;;;;;5419870;26;20007;-53
2024/04/20 06:26:56;;;;;;;1.20;1.10;;;;;;;;;;5419884;26;20011;-53
2024/04/20 06:29:23;;;;;;;1.02;0.95;;;;;;;;;;5419840;26;20344;-53
2024/04/20 06:31:49;;;;;;;1.02;1.02;;;;;;;;;;5419670;26;20011;-53
2024/04/20 06:34:15;;;;;;;1.10;0.75;;;;;;;;;;5419365;26;19999;-53
2024/04/20 06:36:40;;;;;;;0.82;0.77;;;;;;;;;;5416976;26;19999;-53
2024/04/20 06:39:06;;;;;;;1.20;1.02;;;;;;;;;;5385544;26;20022;-53
2024/04/20 06:41:31;;;;;;;0.73;0.73;;;;;;;;;;5416865;26;20003;-53
2024/04/20 06:43:59;;;;;;;0.75;0.70;;;;;;;;;;5418454;26;20002;-54
2024/04/20 06:46:25;;;;;;;1.00;0.90;;;;;;;;;;5418633;26;20004;-53
2024/04/20 06:48:50;;;;;;;0.70;0.70;;;;;;;;;;5387491;26;20355;-53
2024/04/20 06:51:16;;;;;;;0.95;0.90;;;;;;;;;;5418894;26;20010;-53
2024/04/20 06:53:41;;;;;;;0.93;0.70;;;;;;;;;;5419059;26;20003;-53
2024/04/20 06:56:09;;;;;;;1.20;1.10;;;;;;;;;;5419157;26;20086;-53
2024/04/20 06:58:35;;;;;;;1.27;1.00;;;;;;;;;;5419552;26;20005;-53
2024/04/20 07:01:01;;;;;;;1.48;0.75;;;;;;;;;;5388593;26;20514;-53
2024/04/20 07:03:27;;;;;;;2.55;1.50;;;;;;;;;;5419088;26;19992;-53
2024/04/20 07:05:55;;;;;;;1.20;1.15;;;;;;;;;;5416533;26;20422;-53
2024/04/20 07:08:21;;;;;;;1.30;1.15;;;;;;;;;;5415707;26;20006;-53
2024/04/20 07:10:54;;;;;;;1.10;0.93;;;;;;;;;;5415432;26;19991;-53
2024/04/20 07:13:19;;;;;;;2.25;0.80;;;;;;;;;;5415394;26;20179;-53
2024/04/20 07:15:51;;;;;;;1.50;0.95;;;;;;;;;;5415319;26;20035;-53
2024/04/20 07:18:16;;;;;;;1.13;1.08;;;;;;;;;;5415399;26;20003;-53
2024/04/20 07:20:41;;;;;;;1.00;0.90;;;;;;;;;;5382613;26;20404;-53
2024/04/20 07:23:07;;;;;;;0.50;0.50;;;;;;;;;;5413614;26;19999;-54
2024/04/20 07:25:32;;;;;;;0.90;0.73;;;;;;;;;;5413708;26;20491;-53
2024/04/20 07:27:57;;;;;;;0.70;0.60;;;;;;;;;;5412426;26;20003;-53
2024/04/20 07:30:23;;;;;;;0.60;0.60;;;;;;;;;;5411768;26;20443;-53
2024/04/20 07:32:48;;;;;;;0.95;0.75;;;;;;;;;;5411298;26;20082;-53
2024/04/20 07:35:14;;;;;;;1.05;0.93;;;;;;;;;;5413322;26;20007;-53
2024/04/20 07:37:39;;;;;;;0.70;0.70;;;;;;;;;;5383450;26;19996;-53
2024/04/20 07:40:06;;;;;;;0.73;0.73;;;;;;;;;;5414640;26;19999;-53
2024/04/20 07:42:31;;;;;;;2.75;0.77;;;;;;;;;;5418728;26;20442;-53
2024/04/20 07:44:57;;;;;;;1.00;0.77;;;;;;;;;;5387866;26;19991;-53
2024/04/20 07:47:22;;;;;;;0.70;0.65;;;;;;;;;;5418656;26;19991;-53
2024/04/20 07:49:47;;;;;;;0.95;0.80;;;;;;;;;;5387098;26;20446;-53
2024/04/20 07:52:13;;;;;;;0.90;0.90;;;;;;;;;;5418531;26;19996;-53
2024/04/20 07:54:39;;;;;;;1.23;0.80;;;;;;;;;;5387327;26;19999;-53
2024/04/20 07:57:04;;;;;;;1.25;1.10;;;;;;;;;;5418227;26;20426;-53
2024/04/20 07:59:30;;;;;;;0.93;0.93;;;;;;;;;;5387161;26;19995;-53
2024/04/20 08:01:56;;;;;;;1.02;1.00;;;;;;;;;;5418457;26;20000;-53
2024/04/20 08:04:21;;;;;;;0.60;0.60;;;;;;;;;;5418127;26;19999;-53
2024/04/20 08:06:47;;;;;;;0.55;0.50;;;;;;;;;;5418345;26;20083;-53
2024/04/20 08:09:12;;;;;;;0.70;0.70;;;;;;;;;;5387095;26;20071;-53
2024/04/20 08:11:37;;;;;;;1.30;0.82;;;;;;;;;;5418017;26;20000;-53
2024/04/20 08:14:03;;;;;;;1.20;1.05;;;;;;;;;;5418280;26;20010;-53
2024/04/20 08:16:28;;;;;;;0.90;0.90;;;;;;;;;;5418241;26;20303;-53
2024/04/20 08:18:54;;;;;;;1.20;1.10;;;;;;;;;;5417793;26;20402;-53
2024/04/20 08:21:20;;;;;;;1.70;1.45;;;;;;;;;;5418132;26;19991;-53
2024/04/20 08:23:46;;;;;;;1.00;1.00;;;;;;;;;;5418137;26;20003;-53
2024/04/20 08:26:12;;;;;;;0.90;0.90;;;;;;;;;;5417991;26;19999;-53
2024/04/20 08:28:37;;;;;;;1.00;1.00;;;;;;;;;;5418052;26;20045;-53
2024/04/20 08:31:03;;;;;;;0.88;0.88;;;;;;;;;;5386249;26;20007;-53
2024/04/20 08:33:28;;;;;;;1.20;1.20;;;;;;;;;;5386662;26;19996;-53
2024/04/20 08:35:53;;;;;;;1.17;1.08;;;;;;;;;;5417718;26;19992;-53
2024/04/20 08:38:19;;;;;;;1.58;1.17;;;;;;;;;;5417789;26;20065;-53
2024/04/20 08:40:45;;;;;;;1.25;1.25;;;;;;;;;;5417731;26;20008;-53
2024/04/20 08:43:11;;;;;;;1.65;0.98;;;;;;;;;;5418458;26;20010;-53
2024/04/20 08:45:37;;;;;;;0.80;0.80;;;;;;;;;;5390218;26;20015;-53
2024/04/20 08:48:03;;;;;;;1.25;1.08;;;;;;;;;;5421367;26;20073;-53
2024/04/20 08:50:29;;;;;;;1.38;1.27;;;;;;;;;;5360696;26;20003;-53
2024/04/20 08:52:57;;;;;;;0.93;0.93;;;;;;;;;;5421073;26;20069;-53
2024/04/20 08:55:22;;;;;;;1.20;1.10;;;;;;;;;;5421043;26;19996;-53
2024/04/20 08:57:49;;;;;;;0.98;0.98;;;;;;;;;;5421361;26;20068;-53
2024/04/20 09:00:14;;;;;;;0.85;0.85;;;;;;;;;;5421164;26;20007;-53
2024/04/20 09:02:42;;;;;;;1.50;0.98;;;;;;;;;;5421039;26;19995;-53
2024/04/20 09:05:08;;;;;;;1.00;1.00;;;;;;;;;;5420948;26;19991;-53
2024/04/20 09:07:34;;;;;;;1.13;0.95;;;;;;;;;;5389597;26;20330;-53
2024/04/20 09:10:00;;;;;;;1.65;1.08;;;;;;;;;;5420895;26;19999;-53
2024/04/20 09:12:25;;;;;;;2.00;0.95;;;;;;;;;;5420672;26;20011;-53
2024/04/20 09:14:57;;;;;;;0.60;0.55;;;;;;;;;;5421114;26;19999;-53
2024/04/20 09:17:23;;;;;;;0.80;0.80;;;;;;;;;;5420882;26;19996;-53
2024/04/20 09:19:49;;;;;;;0.77;0.77;;;;;;;;;;5420872;26;20430;-53
2024/04/20 09:22:15;;;;;;;0.73;0.73;;;;;;;;;;5420793;26;20444;-53
2024/04/20 09:24:41;;;;;;;0.80;0.80;;;;;;;;;;5389588;26;20011;-53
2024/04/20 09:27:09;;;;;;;0.60;0.60;;;;;;;;;;5420792;26;20031;-53
2024/04/20 09:29:39;;;;;;;0.80;0.80;;;;;;;;;;5420581;26;19996;-53
2024/04/20 09:32:08;;;;;;;1.63;1.30;;;;;;;;;;5420715;26;20014;-53
2024/04/20 09:34:33;;;;;;;1.77;1.67;;;;;;;;;;5420701;26;20072;-53
2024/04/20 09:36:59;;;;;;;1.80;1.70;;;;;;;;;;5420587;26;19999;-53
2024/04/20 09:39:24;;;;;;;1.25;1.15;;;;;;;;;;5420254;26;19999;-53
2024/04/20 09:41:54;;;;;;;3.95;1.55;;;;;;;;;;5420615;26;20027;-53
2024/04/20 09:44:20;;;;;;;1.75;1.50;;;;;;;;;;5420372;26;20069;-53
2024/04/20 09:46:47;;;;;;;1.60;1.45;;;;;;;;;;5420138;26;20011;-53
2024/04/20 09:49:14;;;;;;;2.95;1.92;;;;;;;;;;5420329;26;20000;-53
2024/04/20 09:51:51;;;;;;;2.30;1.58;;;;;;;;;;5420354;26;20003;-53
2024/04/20 09:54:19;;;;;;;1.65;1.55;;;;;;;;;;5420229;26;20010;-53
2024/04/20 09:56:46;;;;;;;1.67;1.58;;;;;;;;;;5420160;26;20430;-53
2024/04/20 09:59:12;;;;;;;2.20;1.65;;;;;;;;;;5420683;26;20007;-53
2024/04/20 10:01:38;;;;;;;2.03;1.88;;;;;;;;;;5420407;26;20003;-53
2024/04/20 10:04:03;;;;;;;4.75;2.33;;;;;;;;;;5420543;26;19999;-53
2024/04/20 10:06:29;;;;;;;3.13;1.95;;;;;;;;;;5420436;26;20007;-53
2024/04/20 10:08:56;;;;;;;2.15;2.00;;;;;;;;;;5389068;26;20418;-53
2024/04/20 10:11:22;;;;;;;2.20;2.00;;;;;;;;;;5420137;26;20007;-53
2024/04/20 10:13:51;;;;;;;1.95;1.42;;;;;;;;;;5419901;26;20403;-53
2024/04/20 10:16:19;;;;;;;1.77;1.67;;;;;;;;;;5420024;26;20008;-53
2024/04/20 10:18:44;;;;;;;2.47;2.03;;;;;;;;;;5420352;26;20008;-53
2024/04/20 10:21:16;;;;;;;2.58;2.20;;;;;;;;;;5419635;26;20002;-54
2024/04/20 10:23:44;;;;;;;2.40;2.20;;;;;;;;;;5419845;26;20521;-54
2024/04/20 10:26:11;;;;;;;2.55;2.33;;;;;;;;;;5420132;26;20352;-54
2024/04/20 10:28:40;;;;;;;3.20;2.50;;;;;;;;;;5419854;26;20015;-54
2024/04/20 10:31:05;;;;;;;3.08;2.70;;;;;;;;;;5419864;26;20442;-54
2024/04/20 10:33:45;;;;;;;3.10;2.63;;;;;;;;;;5419553;26;20027;-54
2024/04/20 10:36:16;;;;;;;2.30;2.10;;;;;;;;;;5419392;26;20006;-54
2024/04/20 10:38:42;;;;;;;2.65;2.03;;;;;;;;;;5419785;26;19996;-54
2024/04/20 10:41:14;;;;;;;2.13;1.92;;;;;;;;;;5419786;26;20325;-54
2024/04/20 10:43:49;;;;;;;1.55;1.45;;;;;;;;;;5387973;26;20069;-54
2024/04/20 10:46:19;;;;;;;1.65;1.55;;;;;;;;;;5419352;26;20003;-54
2024/04/20 10:48:52;;;;;;;1.48;1.38;;;;;;;;;;5388164;26;20434;-54
2024/04/20 10:51:20;;;;;;;1.65;1.52;;;;;;;;;;5419124;26;20010;-54
2024/04/20 10:54:03;;;;;;;1.50;1.40;;;;;;;;;;5419053;26;20036;-54
2024/04/20 10:56:42;;;;;;;1.38;1.27;;;;;;;;;;5419179;26;19995;-61
2024/04/20 10:59:07;;;;;;;1.65;1.27;;;;;;;;;;5419255;26;19999;-61
2024/04/20 11:01:33;;;;;;;1.42;1.33;;;;;;;;;;5419153;26;19995;-54
2024/04/20 11:03:58;;;;;;;1.30;1.10;;;;;;;;;;5418963;26;20069;-54
2024/04/20 11:06:24;;;;;;;1.15;1.05;;;;;;;;;;5418148;26;19992;-62
2024/04/20 11:08:49;;;;;;;0.98;0.98;;;;;;;;;;5418848;26;19995;-62
2024/04/20 11:11:15;;;;;;;0.93;0.88;;;;;;;;;;5419000;26;19999;-62
2024/04/20 11:13:41;;;;;;;1.30;0.98;;;;;;;;;;5418690;26;20018;-54
2024/04/20 11:16:06;;;;;;;0.63;0.60;;;;;;;;;;5418977;26;20039;-62
2024/04/20 11:18:33;;;;;;;0.82;0.82;;;;;;;;;;5418841;26;20423;-62
2024/04/20 11:21:00;;;;;;;0.70;0.70;;;;;;;;;;5418808;26;20452;-61
2024/04/20 11:23:28;;;;;;;1.30;1.00;;;;;;;;;;5418689;26;20000;-61
2024/04/20 11:25:55;;;;;;;1.17;1.10;;;;;;;;;;5418519;26;20337;-62
2024/04/20 11:28:21;;;;;;;1.85;1.75;;;;;;;;;;5418755;26;20032;-62
2024/04/20 11:30:46;;;;;;;1.42;1.33;;;;;;;;;;5419033;26;20429;-55
2024/04/20 11:33:12;;;;;;;2.72;2.53;;;;;;;;;;5418533;26;20010;-54
2024/04/20 11:35:39;;;;;;;1.63;1.52;;;;;;;;;;5418403;26;20322;-54
2024/04/20 11:38:08;;;;;;;1.77;1.67;;;;;;;;;;5386019;26;20330;-54
2024/04/20 11:40:34;;;;;;;1.70;1.60;;;;;;;;;;5418401;26;20014;-54
2024/04/20 11:43:01;;;;;;;1.80;1.70;;;;;;;;;;5418512;26;20003;-54
2024/04/20 11:45:28;;;;;;;2.03;1.92;;;;;;;;;;5418244;26;20010;-54
2024/04/20 11:47:53;;;;;;;1.98;1.88;;;;;;;;;;5418180;26;20003;-54
2024/04/20 11:50:19;;;;;;;1.70;1.60;;;;;;;;;;5418207;26;20000;-54
2024/04/20 11:55:37;;;;;;;1.55;1.45;;;;;;;;;;5418114;26;19995;-62
2024/04/20 11:58:02;;;;;;;2.15;1.92;;;;;;;;;;5418495;26;20041;-54
2024/04/20 12:00:28;;;;;;;2.80;2.25;;;;;;;;;;5418525;26;19996;-54
2024/04/20 12:02:53;;;;;;;2.72;2.53;;;;;;;;;;5418290;26;19991;-54
2024/04/20 12:05:19;;;;;;;4.43;3.17;;;;;;;;;;5418270;26;20007;-54
2024/04/20 12:07:44;;;;;;;3.78;2.50;;;;;;;;;;5418255;26;20000;-54
2024/04/20 12:10:10;;;;;;;2.25;2.05;;;;;;;;;;5418374;26;19998;-54
2024/04/20 12:12:36;;;;;;;3.15;2.22;;;;;;;;;;5386910;26;19999;-54
2024/04/20 12:15:08;;;;;;;2.78;2.58;;;;;;;;;;5418392;26;20006;-54
2024/04/20 12:17:34;;;;;;;2.22;2.03;;;;;;;;;;5418307;26;20510;-54
2024/04/20 12:20:00;;;;;;;2.20;2.10;;;;;;;;;;5421393;26;20010;-54
2024/04/20 12:22:29;;;;;;;2.78;2.58;;;;;;;;;;5421745;26;20430;-54
2024/04/20 12:24:59;;;;;;;2.92;2.25;;;;;;;;;;5390133;26;19991;-54
2024/04/20 12:27:24;;;;;;;3.10;2.47;;;;;;;;;;5421464;26;20003;-54
2024/04/20 12:29:50;;;;;;;5.65;2.78;;;;;;;;;;5421523;26;19999;-54
2024/04/20 12:32:16;;;;;;;2.80;2.60;;;;;;;;;;5421287;26;20007;-54
2024/04/20 12:34:47;;;;;;;3.88;3.03;;;;;;;;;;5421441;26;20000;-54
2024/04/20 12:37:12;;;;;;;4.40;3.17;;;;;;;;;;5421143;26;19995;-54
2024/04/20 12:39:38;;;;;;;2.83;2.58;;;;;;;;;;5421023;26;20007;-61
2024/04/20 12:42:03;;;;;;;3.25;2.95;;;;;;;;;;5421186;26;19999;-62
2024/04/20 12:44:32;;;;;;;3.42;3.13;;;;;;;;;;5420988;26;20008;-62
2024/04/20 12:46:57;;;;;;;2.67;2.47;;;;;;;;;;5420725;26;20006;-62
2024/04/20 12:49:23;;;;;;;2.97;2.75;;;;;;;;;;5420949;26;19992;-61
2024/04/20 12:51:48;;;;;;;3.83;2.35;;;;;;;;;;5420930;26;20011;-62
2024/04/20 12:54:14;;;;;;;2.45;2.25;;;;;;;;;;5420603;26;20068;-61
2024/04/20 12:56:39;;;;;;;2.70;2.50;;;;;;;;;;5420951;26;20000;-62
2024/04/20 12:59:05;;;;;;;2.25;2.10;;;;;;;;;;5421123;26;19996;-62
2024/04/20 13:01:30;;;;;;;2.17;2.08;;;;;;;;;;5389423;26;20075;-62
2024/04/20 13:03:55;;;;;;;1.92;1.83;;;;;;;;;;5420858;26;20330;-60
2024/04/20 13:06:22;;;;;;;4.18;2.25;;;;;;;;;;5420824;26;20003;-61
2024/04/20 13:08:49;;;;;;;3.95;3.58;;;;;;;;;;5420486;26;20007;-62
2024/04/20 13:11:15;;;;;;;1.70;1.60;;;;;;;;;;5420600;26;20006;-61
2024/04/20 13:13:41;;;;;;;6.45;3.03;;;;;;;;;;5420428;26;20007;-60
2024/04/20 13:16:06;;;;;;;2.92;2.72;;;;;;;;;;5420663;26;20120;-61
2024/04/20 13:18:32;;;;;;;4.07;3.67;;;;;;;;;;5420735;26;19995;-61
2024/04/20 13:21:00;;;;;;;2.85;2.65;;;;;;;;;;5389197;26;20449;-62
2024/04/20 13:23:25;;;;;;;8.88;4.55;;;;;;;;;;5420831;26;20072;-62
2024/04/20 13:25:51;;;;;;;2.60;2.40;;;;;;;;;;5420514;26;19996;-61
2024/04/20 13:28:17;;;;;;;2.15;1.95;;;;;;;;;;5420268;26;19999;-62
2024/04/20 13:30:42;;;;;;;2.28;2.08;;;;;;;;;;5388672;26;20010;-61
2024/04/20 13:33:09;;;;;;;2.17;2.05;;;;;;;;;;5420295;26;20010;-61
2024/04/20 13:35:38;;;;;;;27.13;9.27;;;;;;;;;;5420076;26;20068;-61
2024/04/20 13:38:03;;;;;;;2.80;2.53;;;;;;;;;;5420401;26;20075;-61
2024/04/20 13:40:29;;;;;;;2.05;1.88;;;;;;;;;;5419940;26;20428;-61
2024/04/20 13:42:54;;;;;;;1.90;1.80;;;;;;;;;;5420227;26;20067;-61
2024/04/20 13:45:23;;;;;;;1.92;1.77;;;;;;;;;;5420134;26;20014;-61
2024/04/20 13:47:48;;;;;;;2.08;1.95;;;;;;;;;;5419808;26;20446;-61
2024/04/20 13:50:14;;;;;;;65.85;40.92;;;;;;;;;;5420177;26;20064;-54
2024/04/20 13:52:39;;;;;;;14.93;10.98;;;;;;;;;;5388567;26;20454;-54
2024/04/20 13:55:04;;;;;;;2.55;2.10;;;;;;;;;;5419983;26;20327;-54
2024/04/20 13:57:30;;;;;;;2.67;2.42;;;;;;;;;;5419980;26;20004;-61
2024/04/20 13:59:55;;;;;;;8.45;6.13;;;;;;;;;;5420529;26;20000;-61
2024/04/20 14:02:21;;;;;;;6.22;5.00;;;;;;;;;;5420243;26;20022;-57
2024/04/20 14:04:46;;;;;;;2.20;2.00;;;;;;;;;;5420284;26;19995;-55
2024/04/20 14:07:11;;;;;;;1.70;1.60;;;;;;;;;;5388541;26;20000;-54
2024/04/20 14:09:37;;;;;;;1.88;1.77;;;;;;;;;;5420043;26;20037;-55
2024/04/20 14:12:06;;;;;;;2.53;2.42;;;;;;;;;;5420340;26;19991;-55
2024/04/20 14:14:34;;;;;;;2.90;2.70;;;;;;;;;;5419899;26;20010;-54
2024/04/20 14:17:00;;;;;;;2.17;1.98;;;;;;;;;;5419892;26;20003;-54
2024/04/20 14:19:26;;;;;;;2.13;2.03;;;;;;;;;;5420396;26;20006;-61
2024/04/20 14:21:53;;;;;;;4.45;2.95;;;;;;;;;;5419953;26;20007;-61
2024/04/20 14:24:20;;;;;;;2.83;2.63;;;;;;;;;;5419875;26;20007;-61
2024/04/20 14:26:45;;;;;;;3.17;2.92;;;;;;;;;;5420157;26;20000;-55
2024/04/20 14:29:11;;;;;;;2.40;2.20;;;;;;;;;;5388385;26;20006;-55
2024/04/20 14:31:36;;;;;;;1.52;1.42;;;;;;;;;;5419874;26;20003;-55
2024/04/20 14:34:02;;;;;;;1.50;1.40;;;;;;;;;;5419650;26;19995;-55
2024/04/20 14:36:27;;;;;;;1.40;1.30;;;;;;;;;;5387982;26;20326;-55
2024/04/20 14:38:53;;;;;;;1.60;1.50;;;;;;;;;;5419368;26;20004;-55
2024/04/20 14:41:19;;;;;;;2.63;1.50;;;;;;;;;;5417937;26;20011;-55